createdAt,value
2022-12-23T00:01:46.101Z,11.06
2022-12-23T00:04:12.713Z,11.04
2022-12-23T00:06:39.270Z,11.15
2022-12-23T00:09:05.774Z,11.08
2022-12-23T00:11:32.323Z,10.96
2022-12-23T00:14:21.456Z,11.03
2022-12-23T00:16:50.620Z,11.17
2022-12-23T00:19:17.493Z,11.01
2022-12-23T00:21:44.087Z,11.20
2022-12-23T00:24:11.724Z,11.02
2022-12-23T00:26:38.448Z,11.03
2022-12-23T00:29:05.053Z,11.07
2022-12-23T00:31:31.680Z,10.96
2022-12-23T00:33:58.382Z,10.73
2022-12-23T00:36:28.653Z,10.67
2022-12-23T00:39:15.519Z,11.20
2022-12-23T00:42:00.752Z,10.97
2022-12-23T00:44:27.673Z,11.02
2022-12-23T00:46:54.266Z,10.92
2022-12-23T00:49:39.981Z,11.07
2022-12-23T00:52:08.783Z,11.19
2022-12-23T00:54:35.661Z,10.70
2022-12-23T00:57:03.685Z,10.80
2022-12-23T00:59:30.323Z,10.93
2022-12-23T01:02:15.354Z,10.68
2022-12-23T01:05:00.701Z,11.11
2022-12-23T01:07:27.320Z,10.99
2022-12-23T01:09:53.978Z,10.96
2022-12-23T01:12:20.669Z,10.99
2022-12-23T01:14:47.218Z,10.58
2022-12-23T01:17:14.176Z,11.09
2022-12-23T01:19:40.829Z,11.09
2022-12-23T01:22:07.479Z,10.90
2022-12-23T01:24:34.698Z,10.90
2022-12-23T01:27:01.550Z,10.62
2022-12-23T01:29:28.766Z,10.95
2022-12-23T01:31:55.546Z,10.86
2022-12-23T01:34:22.449Z,10.97
2022-12-23T01:36:48.982Z,10.81
2022-12-23T01:39:15.708Z,11.02
2022-12-23T01:42:00.872Z,11.01
2022-12-23T01:44:46.007Z,11.03
2022-12-23T01:47:16.875Z,10.66
2022-12-23T01:49:43.765Z,10.88
2022-12-23T01:52:11.698Z,10.92
2022-12-23T01:54:39.449Z,10.29
2022-12-23T01:57:06.157Z,11.07
2022-12-23T01:59:51.407Z,11.09
2022-12-23T02:02:36.595Z,10.96
2022-12-23T02:05:03.389Z,10.99
2022-12-23T02:07:49.051Z,11.00
2022-12-23T02:10:15.703Z,10.94
2022-12-23T02:13:02.041Z,10.86
2022-12-23T02:15:50.314Z,11.11
2022-12-23T02:18:41.534Z,11.06
2022-12-23T02:21:14.648Z,11.03
2022-12-23T02:24:02.930Z,11.09
2022-12-23T02:27:00.317Z,11.04
2022-12-23T02:29:41.658Z,10.99
2022-12-23T02:32:29.678Z,10.64
2022-12-23T02:35:23.326Z,10.96
2022-12-23T02:38:11.770Z,11.01
2022-12-23T02:40:53.592Z,11.01
2022-12-23T02:43:35.529Z,10.64
2022-12-23T02:46:09.733Z,10.81
2022-12-23T02:48:39.044Z,10.98
2022-12-23T02:51:09.317Z,10.55
2022-12-23T02:53:41.677Z,10.91
2022-12-23T02:56:10.263Z,10.90
2022-12-23T02:58:44.362Z,10.47
2022-12-23T03:01:13.133Z,10.84
2022-12-23T03:03:41.591Z,10.61
2022-12-23T03:06:20.851Z,10.33
2022-12-23T03:08:49.659Z,10.82
2022-12-23T03:11:18.055Z,10.78
2022-12-23T03:14:08.334Z,10.94
2022-12-23T03:16:58.617Z,10.96
2022-12-23T03:20:07.035Z,10.92
2022-12-23T03:23:21.707Z,10.91
2022-12-23T03:25:59.287Z,10.46
2022-12-23T03:28:32.185Z,10.85
2022-12-23T03:31:03.748Z,10.54
2022-12-23T03:33:42.294Z,10.46
2022-12-23T03:36:22.046Z,10.86
2022-12-23T03:38:51.178Z,10.81
2022-12-23T03:41:24.497Z,10.87
2022-12-23T03:43:58.136Z,10.35
2022-12-23T03:46:32.633Z,10.61
2022-12-23T03:49:05.967Z,10.77
2022-12-23T03:51:49.359Z,10.87
2022-12-23T03:54:22.480Z,10.79
2022-12-23T03:57:01.423Z,10.65
2022-12-23T03:59:32.055Z,10.92
2022-12-23T04:02:16.446Z,10.85
2022-12-23T04:05:07.959Z,10.88
2022-12-23T04:07:39.416Z,10.29
2022-12-23T04:10:07.803Z,10.87
2022-12-23T04:12:34.502Z,10.38
2022-12-23T04:15:01.024Z,10.76
2022-12-23T04:17:28.704Z,10.65
2022-12-23T04:19:55.648Z,10.78
2022-12-23T04:22:22.270Z,10.76
2022-12-23T04:24:48.864Z,10.78
2022-12-23T04:27:16.776Z,10.75
2022-12-23T04:29:43.788Z,10.44
2022-12-23T04:32:10.908Z,10.43
2022-12-23T04:34:37.400Z,10.83
2022-12-23T04:37:03.986Z,10.83
2022-12-23T04:39:30.491Z,10.27
2022-12-23T04:41:57.072Z,10.83
2022-12-23T04:44:23.597Z,10.66
2022-12-23T04:46:50.237Z,10.89
2022-12-23T04:49:16.810Z,10.71
2022-12-23T04:51:44.326Z,10.32
2022-12-23T04:54:10.867Z,10.61
2022-12-23T04:56:37.380Z,10.88
2022-12-23T04:59:05.004Z,10.80
2022-12-23T05:01:31.736Z,10.65
2022-12-23T05:03:58.621Z,10.66
2022-12-23T05:06:25.178Z,10.14
2022-12-23T05:08:51.823Z,10.26
2022-12-23T05:11:18.407Z,10.71
2022-12-23T05:13:44.871Z,10.20
2022-12-23T05:16:11.494Z,10.63
2022-12-23T05:18:38.186Z,10.60
2022-12-23T05:21:05.058Z,10.30
2022-12-23T05:23:31.638Z,10.64
2022-12-23T05:25:59.262Z,10.52
2022-12-23T05:28:25.900Z,10.56
2022-12-23T05:31:04.821Z,10.58
2022-12-23T05:33:32.398Z,10.60
2022-12-23T05:35:59.044Z,10.56
2022-12-23T05:38:25.697Z,10.70
2022-12-23T05:40:52.604Z,10.57
2022-12-23T05:43:20.520Z,10.53
2022-12-23T05:45:47.652Z,10.70
2022-12-23T05:48:14.321Z,10.18
2022-12-23T05:50:41.124Z,10.42
2022-12-23T05:53:08.619Z,10.77
2022-12-23T05:55:35.844Z,10.68
2022-12-23T05:58:02.737Z,10.22
2022-12-23T06:00:29.368Z,10.65
2022-12-23T06:02:56.090Z,10.62
2022-12-23T06:05:22.966Z,10.64
2022-12-23T06:07:49.632Z,10.78
2022-12-23T06:10:16.299Z,10.73
2022-12-23T06:12:42.839Z,10.73
2022-12-23T06:15:09.734Z,10.82
2022-12-23T06:17:36.493Z,10.77
2022-12-23T06:20:03.495Z,10.61
2022-12-23T06:22:31.251Z,10.28
2022-12-23T06:24:57.848Z,10.67
2022-12-23T06:27:24.363Z,10.75
2022-12-23T06:29:50.868Z,10.83
2022-12-23T06:32:17.492Z,10.83
2022-12-23T06:34:44.185Z,10.75
2022-12-23T06:37:10.796Z,10.78
2022-12-23T06:39:37.340Z,10.76
2022-12-23T06:42:04.008Z,10.80
2022-12-23T06:44:30.513Z,10.77
2022-12-23T06:46:57.045Z,10.78
2022-12-23T06:49:23.640Z,10.86
2022-12-23T06:51:50.173Z,10.90
2022-12-23T06:54:16.712Z,10.67
2022-12-23T06:56:43.182Z,10.86
2022-12-23T06:59:09.768Z,10.78
2022-12-23T07:01:36.395Z,10.58
2022-12-23T07:04:03.145Z,10.77
2022-12-23T07:06:29.793Z,10.76
2022-12-23T07:08:56.387Z,10.36
2022-12-23T07:11:22.895Z,10.80
2022-12-23T07:13:49.413Z,10.37
2022-12-23T07:16:16.019Z,10.86
2022-12-23T07:18:43.905Z,10.74
2022-12-23T07:21:20.017Z,10.75
2022-12-23T07:23:51.279Z,10.32
2022-12-23T07:26:17.874Z,10.59
2022-12-23T07:28:48.717Z,10.07
2022-12-23T07:31:15.642Z,10.84
2022-12-23T07:33:42.493Z,10.71
2022-12-23T07:36:09.240Z,10.47
2022-12-23T07:38:35.759Z,10.93
2022-12-23T07:41:02.203Z,10.31
2022-12-23T07:43:28.694Z,10.65
2022-12-23T07:45:59.861Z,10.59
2022-12-23T07:48:27.443Z,10.86
2022-12-23T07:51:00.361Z,10.97
2022-12-23T07:53:26.848Z,10.80
2022-12-23T07:55:56.662Z,10.75
2022-12-23T07:58:23.954Z,10.82
2022-12-23T08:00:50.940Z,11.06
2022-12-23T08:03:17.908Z,10.73
2022-12-23T08:05:44.516Z,11.13
2022-12-23T08:08:11.099Z,10.56
2022-12-23T08:10:41.485Z,11.14
2022-12-23T08:13:11.029Z,10.94
2022-12-23T08:15:37.501Z,10.57
2022-12-23T08:18:04.084Z,11.05
2022-12-23T08:20:30.569Z,11.03
2022-12-23T08:22:57.017Z,11.04
2022-12-23T08:25:23.482Z,11.13
2022-12-23T08:27:50.966Z,11.00
2022-12-23T08:30:17.492Z,11.12
2022-12-23T08:32:43.996Z,10.70
2022-12-23T08:35:10.526Z,11.17
2022-12-23T08:37:37.100Z,10.98
2022-12-23T08:40:03.937Z,11.24
2022-12-23T08:42:30.426Z,11.01
2022-12-23T08:44:56.924Z,11.14
2022-12-23T08:47:23.486Z,11.18
2022-12-23T08:49:49.970Z,11.19
2022-12-23T08:52:16.482Z,11.19
2022-12-23T08:54:43.003Z,11.21
2022-12-23T08:57:09.527Z,11.27
2022-12-23T08:59:36.019Z,11.14
2022-12-23T09:02:03.791Z,11.30
2022-12-23T09:04:30.428Z,10.76
2022-12-23T09:06:56.949Z,11.24
2022-12-23T09:09:23.610Z,11.28
2022-12-23T09:11:50.064Z,11.20
2022-12-23T09:14:16.547Z,11.29
2022-12-23T09:16:43.107Z,11.20
2022-12-23T09:19:09.611Z,10.70
2022-12-23T09:21:36.516Z,11.24
2022-12-23T09:24:03.119Z,10.75
2022-12-23T09:26:30.574Z,11.16
2022-12-23T09:28:57.592Z,10.71
2022-12-23T09:31:26.759Z,10.61
2022-12-23T09:33:56.203Z,10.97
2022-12-23T09:36:22.900Z,10.54
2022-12-23T09:38:57.678Z,10.72
2022-12-23T09:42:05.274Z,11.19
2022-12-23T09:44:50.817Z,11.26
2022-12-23T09:47:24.907Z,11.23
2022-12-23T09:50:00.925Z,11.26
2022-12-23T09:52:47.502Z,10.81
2022-12-23T09:55:15.726Z,11.19
2022-12-23T09:57:56.689Z,11.25
2022-12-23T10:00:23.763Z,11.29
2022-12-23T10:03:12.314Z,11.36
2022-12-23T10:06:07.935Z,11.35
2022-12-23T10:08:38.273Z,11.24
2022-12-23T10:11:06.605Z,11.38
2022-12-23T10:13:43.931Z,11.39
2022-12-23T10:16:19.023Z,11.23
2022-12-23T10:18:52.143Z,11.40
2022-12-23T10:21:47.764Z,11.42
2022-12-23T10:24:23.249Z,10.99
2022-12-23T10:26:54.019Z,11.37
2022-12-23T10:29:25.887Z,11.34
2022-12-23T10:32:17.248Z,11.40
2022-12-23T10:34:49.909Z,11.35
2022-12-23T10:37:28.413Z,11.36
2022-12-23T10:40:13.137Z,11.34
2022-12-23T10:42:50.838Z,11.17
2022-12-23T10:45:56.436Z,10.91
2022-12-23T10:48:53.715Z,11.27
2022-12-23T10:51:26.888Z,11.14
2022-12-23T10:53:58.413Z,11.18
2022-12-23T10:56:25.120Z,11.30
2022-12-23T10:58:56.303Z,10.87
2022-12-23T11:01:27.078Z,11.27
2022-12-23T11:03:57.584Z,11.31
2022-12-23T11:06:24.165Z,11.24
2022-12-23T11:08:50.878Z,11.08
2022-12-23T11:11:17.364Z,11.20
2022-12-23T11:13:45.920Z,11.11
2022-12-23T11:16:26.960Z,10.86
2022-12-23T11:19:15.131Z,10.70
2022-12-23T11:21:57.168Z,11.05
2022-12-23T11:24:25.955Z,11.00
2022-12-23T11:27:02.371Z,11.01
2022-12-23T11:29:35.454Z,11.05
2022-12-23T11:32:04.924Z,11.00
2022-12-23T11:34:37.681Z,10.69
2022-12-23T11:37:07.458Z,11.07
2022-12-23T11:39:37.050Z,10.56
2022-12-23T11:42:11.331Z,11.07
2022-12-23T11:44:43.481Z,11.13
2022-12-23T11:47:22.288Z,11.11
2022-12-23T11:49:57.430Z,11.11
2022-12-23T11:52:27.484Z,11.09
2022-12-23T11:54:56.914Z,10.89
2022-12-23T11:57:38.426Z,10.54
2022-12-23T12:00:07.809Z,11.05
2022-12-23T12:02:41.056Z,10.55
2022-12-23T12:05:23.000Z,11.00
2022-12-23T12:07:51.546Z,10.97
2022-12-23T12:10:25.356Z,11.00
2022-12-23T12:12:56.419Z,11.03
2022-12-23T12:15:49.256Z,11.00
2022-12-23T12:18:18.859Z,10.93
2022-12-23T12:20:48.451Z,10.27
2022-12-23T12:23:21.052Z,10.83
2022-12-23T12:25:50.595Z,10.82
2022-12-23T12:28:34.346Z,10.50
2022-12-23T12:31:10.832Z,10.75
2022-12-23T12:33:48.354Z,10.22
2022-12-23T12:36:28.427Z,10.72
2022-12-23T12:38:58.508Z,10.62
2022-12-23T12:41:33.735Z,10.65
2022-12-23T12:44:13.728Z,10.60
2022-12-23T12:46:46.897Z,10.11
2022-12-23T12:49:31.408Z,10.59
2022-12-23T12:52:15.845Z,10.58
2022-12-23T12:55:13.539Z,10.44
2022-12-23T12:57:40.928Z,10.12
2022-12-23T13:00:29.992Z,10.21
2022-12-23T13:03:11.232Z,10.66
2022-12-23T13:06:03.399Z,10.66
2022-12-23T13:08:42.002Z,10.80
2022-12-23T13:11:24.926Z,10.89
2022-12-23T13:14:00.740Z,10.84
2022-12-23T13:16:50.205Z,10.53
2022-12-23T13:19:38.511Z,10.86
2022-12-23T13:22:16.229Z,10.88
2022-12-23T13:24:59.081Z,11.12
2022-12-23T13:27:32.551Z,11.19
2022-12-23T13:30:05.016Z,11.27
2022-12-23T13:33:00.780Z,11.30
2022-12-23T13:35:49.041Z,11.24
2022-12-23T13:38:37.175Z,11.28
2022-12-23T13:41:19.934Z,10.99
2022-12-23T13:43:48.938Z,11.55
2022-12-23T13:46:31.622Z,11.39
2022-12-23T13:49:07.549Z,11.08
2022-12-23T13:51:44.381Z,11.47
2022-12-23T13:54:52.890Z,11.34
2022-12-23T13:57:47.262Z,11.23
2022-12-23T14:00:17.675Z,11.15
2022-12-23T14:03:02.706Z,11.06
2022-12-23T14:05:41.216Z,10.89
2022-12-23T14:08:20.289Z,10.51
2022-12-23T14:11:01.112Z,10.90
2022-12-23T14:13:31.327Z,10.85
2022-12-23T14:16:24.276Z,10.89
2022-12-23T14:19:09.688Z,10.82
2022-12-23T14:22:00.609Z,10.81
2022-12-23T14:25:01.070Z,10.76
2022-12-23T14:27:47.685Z,10.53
2022-12-23T14:30:37.477Z,10.71
2022-12-23T14:33:15.825Z,10.71
2022-12-23T14:35:51.336Z,10.65
2022-12-23T14:38:27.797Z,10.68
2022-12-23T14:40:59.047Z,10.44
2022-12-23T14:43:45.095Z,10.72
2022-12-23T14:46:50.089Z,10.70
2022-12-23T14:49:40.679Z,10.63
2022-12-23T14:52:39.334Z,10.58
2022-12-23T14:55:31.634Z,10.52
2022-12-23T14:58:20.423Z,10.50
2022-12-23T15:00:55.587Z,10.42
2022-12-23T15:03:22.566Z,10.48
2022-12-23T15:05:50.939Z,10.52
2022-12-23T15:08:40.600Z,10.51
2022-12-23T15:11:15.293Z,10.39
2022-12-23T15:13:42.572Z,10.05
2022-12-23T15:16:15.879Z,10.42
2022-12-23T15:18:55.875Z,10.31
2022-12-23T15:21:28.837Z,10.41
2022-12-23T15:23:55.658Z,9.90
2022-12-23T15:26:26.989Z,9.93
2022-12-23T15:28:54.529Z,10.11
2022-12-23T15:31:35.705Z,9.91
2022-12-23T15:34:17.686Z,10.24
2022-12-23T15:36:45.706Z,9.92
2022-12-23T15:39:40.234Z,10.35
2022-12-23T15:42:27.383Z,10.33
2022-12-23T15:44:54.455Z,9.78
2022-12-23T15:47:23.751Z,9.71
2022-12-23T15:49:50.310Z,9.96
2022-12-23T15:52:20.514Z,10.29
2022-12-23T15:54:57.509Z,10.30
2022-12-23T15:57:27.193Z,10.02
2022-12-23T15:59:54.614Z,10.26
2022-12-23T16:05:28.198Z,10.14
2022-12-23T16:08:28.243Z,10.28
2022-12-23T16:11:06.592Z,10.42
2022-12-23T16:13:33.606Z,10.41
2022-12-23T16:16:42.381Z,10.48
2022-12-23T16:19:46.280Z,10.47
2022-12-23T16:22:25.558Z,10.31
2022-12-23T16:25:10.835Z,10.52
2022-12-23T16:27:41.070Z,10.59
2022-12-23T16:30:21.008Z,10.39
2022-12-23T16:32:51.392Z,10.02
2022-12-23T16:35:33.738Z,10.47
2022-12-23T16:38:14.180Z,10.61
2022-12-23T16:40:42.172Z,10.54
2022-12-23T16:43:09.160Z,10.61
2022-12-23T16:45:36.642Z,10.57
2022-12-23T16:48:10.141Z,10.63
2022-12-23T16:50:36.809Z,10.61
2022-12-23T16:53:03.764Z,10.71
2022-12-23T16:55:30.242Z,10.82
2022-12-23T16:57:56.730Z,10.36
2022-12-23T17:00:23.751Z,10.96
2022-12-23T17:02:50.305Z,11.07
2022-12-23T17:05:19.225Z,11.19
2022-12-23T17:07:46.212Z,10.94
2022-12-23T17:10:16.388Z,11.18
2022-12-23T17:12:44.468Z,11.27
2022-12-23T17:15:18.444Z,11.49
2022-12-23T17:17:45.691Z,11.48
2022-12-23T17:20:12.860Z,11.54
2022-12-23T17:22:39.705Z,11.62
2022-12-23T17:25:06.739Z,11.62
2022-12-23T17:27:34.313Z,11.71
2022-12-23T17:30:00.909Z,11.81
2022-12-23T17:32:27.574Z,11.94
2022-12-23T17:34:54.232Z,11.82
2022-12-23T17:37:21.606Z,11.97
2022-12-23T17:39:48.527Z,11.44
2022-12-23T17:42:24.903Z,11.69
2022-12-23T17:44:52.251Z,11.70
2022-12-23T17:47:21.546Z,11.77
2022-12-23T17:49:48.998Z,11.41
2022-12-23T17:52:20.744Z,11.80
2022-12-23T17:54:49.213Z,11.77
2022-12-23T17:57:24.433Z,11.73
2022-12-23T17:59:52.800Z,11.69
2022-12-23T18:02:30.609Z,11.56
2022-12-23T18:04:57.205Z,11.78
2022-12-23T18:07:23.835Z,11.88
2022-12-23T18:09:50.877Z,11.79
2022-12-23T18:12:34.162Z,11.99
2022-12-23T18:15:01.622Z,11.82
2022-12-23T18:17:28.157Z,12.02
2022-12-23T18:19:54.839Z,12.03
2022-12-23T18:22:24.259Z,11.76
2022-12-23T18:24:56.986Z,12.07
2022-12-23T18:27:25.613Z,12.17
2022-12-23T18:29:52.126Z,12.08
2022-12-23T18:32:27.833Z,12.26
2022-12-23T18:34:55.167Z,12.20
2022-12-23T18:37:23.859Z,12.32
2022-12-23T18:39:50.417Z,11.99
2022-12-23T18:42:19.861Z,12.41
2022-12-23T18:44:48.340Z,11.82
2022-12-23T18:47:14.935Z,11.99
2022-12-23T18:49:41.537Z,12.06
2022-12-23T18:52:12.572Z,12.07
2022-12-23T18:54:39.853Z,11.73
2022-12-23T18:57:07.059Z,11.79
2022-12-23T18:59:37.443Z,11.39
2022-12-23T19:02:04.648Z,11.69
2022-12-23T19:04:31.313Z,11.59
2022-12-23T19:06:58.143Z,11.65
2022-12-23T19:09:25.360Z,11.69
2022-12-23T19:11:55.820Z,11.72
2022-12-23T19:14:22.853Z,11.35
2022-12-23T19:16:52.082Z,11.64
2022-12-23T19:19:20.257Z,11.65
2022-12-23T19:21:46.811Z,11.67
2022-12-23T19:24:14.012Z,11.61
2022-12-23T19:26:40.573Z,11.21
2022-12-23T19:29:08.406Z,11.64
2022-12-23T19:31:35.032Z,11.54
2022-12-23T19:34:02.831Z,11.69
2022-12-23T19:36:29.542Z,11.61
2022-12-23T19:38:56.962Z,11.54
2022-12-23T19:41:23.684Z,11.78
2022-12-23T19:43:50.372Z,11.69
2022-12-23T19:46:17.218Z,11.63
2022-12-23T19:48:43.785Z,11.76
2022-12-23T19:51:13.151Z,11.36
2022-12-23T19:53:41.447Z,11.85
2022-12-23T19:56:11.665Z,11.80
2022-12-23T19:58:40.264Z,11.33
2022-12-23T20:01:18.933Z,11.76
2022-12-23T20:03:47.306Z,11.35
2022-12-23T20:06:19.562Z,11.71
2022-12-23T20:08:46.986Z,11.36
2022-12-23T20:11:16.923Z,11.63
2022-12-23T20:13:44.267Z,11.11
2022-12-23T20:16:11.514Z,11.18
2022-12-23T20:18:38.181Z,11.44
2022-12-23T20:21:06.889Z,11.14
2022-12-23T20:23:34.144Z,11.39
2022-12-23T20:26:01.022Z,11.47
2022-12-23T20:28:28.004Z,11.48
2022-12-23T20:31:12.352Z,11.41
2022-12-23T20:33:39.496Z,11.09
2022-12-23T20:36:07.106Z,11.42
2022-12-23T20:38:34.756Z,11.35
2022-12-23T20:41:02.847Z,11.28
2022-12-23T20:43:29.411Z,11.34
2022-12-23T20:45:55.885Z,11.00
2022-12-23T20:48:23.402Z,11.27
2022-12-23T20:50:51.432Z,10.95
2022-12-23T20:53:18.022Z,11.32
2022-12-23T20:55:44.782Z,11.19
2022-12-23T20:58:29.865Z,11.28
2022-12-23T21:00:56.443Z,11.17
2022-12-23T21:03:23.102Z,11.32
2022-12-23T21:05:49.837Z,11.02
2022-12-23T21:08:16.384Z,11.19
2022-12-23T21:10:42.947Z,11.02
2022-12-23T21:13:09.504Z,11.06
2022-12-23T21:15:36.023Z,11.00
2022-12-23T21:18:02.555Z,11.24
2022-12-23T21:20:29.084Z,11.03
2022-12-23T21:22:55.595Z,10.76
2022-12-23T21:25:22.194Z,11.21
2022-12-23T21:27:50.420Z,11.12
2022-12-23T21:30:16.991Z,11.11
2022-12-23T21:32:43.491Z,10.99
2022-12-23T21:35:10.213Z,10.93
2022-12-23T21:37:36.822Z,10.95
2022-12-23T21:40:04.683Z,10.96
2022-12-23T21:42:31.179Z,11.05
2022-12-23T21:44:57.651Z,10.64
2022-12-23T21:47:24.322Z,10.82
2022-12-23T21:49:50.867Z,10.72
2022-12-23T21:52:17.495Z,10.41
2022-12-23T21:54:44.130Z,10.83
2022-12-23T21:57:10.707Z,10.64
2022-12-23T21:59:37.209Z,10.61
2022-12-23T22:02:03.904Z,10.83
2022-12-23T22:04:30.419Z,10.56
2022-12-23T22:06:56.982Z,10.80
2022-12-23T22:09:23.488Z,11.05
2022-12-23T22:11:50.069Z,10.99
2022-12-23T22:14:18.818Z,11.17
2022-12-23T22:16:45.601Z,11.13
2022-12-23T22:19:12.528Z,10.43
2022-12-23T22:21:39.758Z,10.83
2022-12-23T22:24:06.959Z,11.34
2022-12-23T22:26:34.858Z,11.23
2022-12-23T22:29:04.595Z,10.90
2022-12-23T22:31:38.102Z,11.32
2022-12-23T22:34:06.679Z,10.96
2022-12-23T22:36:33.740Z,11.35
2022-12-23T22:39:01.546Z,11.28
2022-12-23T22:41:29.531Z,11.15
2022-12-23T22:43:57.294Z,11.25
2022-12-23T22:46:24.516Z,11.08
2022-12-23T22:48:52.348Z,10.87
2022-12-23T22:51:25.313Z,11.23
2022-12-23T22:53:52.401Z,11.26
2022-12-23T22:56:20.712Z,11.18
2022-12-23T22:58:48.060Z,11.04
2022-12-23T23:01:19.237Z,10.43
2022-12-23T23:03:45.713Z,10.47
2022-12-23T23:06:12.329Z,10.15
2022-12-23T23:08:38.920Z,10.15
2022-12-23T23:11:05.609Z,10.67
2022-12-23T23:13:34.367Z,10.60
2022-12-23T23:16:01.897Z,10.20
2022-12-23T23:18:29.932Z,10.73
2022-12-23T23:20:56.879Z,10.26
2022-12-23T23:23:23.577Z,10.67
2022-12-23T23:25:50.170Z,10.69
2022-12-23T23:28:18.228Z,10.75
2022-12-23T23:30:44.815Z,10.77
2022-12-23T23:33:11.797Z,10.63
2022-12-23T23:35:38.481Z,11.00
2022-12-23T23:38:05.274Z,11.15
2022-12-23T23:40:31.877Z,10.98
2022-12-23T23:42:58.380Z,11.06
2022-12-23T23:45:24.985Z,11.14
2022-12-23T23:47:51.517Z,11.01
2022-12-23T23:50:18.009Z,10.94
2022-12-23T23:52:44.526Z,11.21
2022-12-23T23:55:11.217Z,11.08
2022-12-23T23:57:38.422Z,11.19
